createdAt,value
2022-08-16T00:00:20.378Z,13.30
2022-08-16T00:02:51.779Z,12.77
2022-08-16T00:05:20.639Z,12.85
2022-08-16T00:07:48.991Z,12.45
2022-08-16T00:10:27.063Z,13.55
2022-08-16T00:12:57.098Z,13.82
2022-08-16T00:15:50.820Z,12.95
2022-08-16T00:18:22.160Z,16.88
2022-08-16T00:20:57.197Z,13.23
2022-08-16T00:23:40.488Z,15.70
2022-08-16T00:26:34.498Z,14.35
2022-08-16T00:28:59.379Z,12.88
2022-08-16T00:31:26.694Z,13.20
2022-08-16T00:34:18.015Z,14.52
2022-08-16T00:36:47.295Z,15.38
2022-08-16T00:39:17.135Z,13.35
2022-08-16T00:41:46.681Z,13.02
2022-08-16T00:44:16.049Z,17.67
2022-08-16T00:47:12.491Z,18.80
2022-08-16T00:49:44.340Z,12.50
2022-08-16T00:52:29.980Z,20.13
2022-08-16T00:55:00.052Z,12.50
2022-08-16T00:57:55.518Z,14.80
2022-08-16T01:00:19.806Z,13.00
2022-08-16T01:02:48.869Z,13.30
2022-08-16T01:05:16.432Z,13.90
2022-08-16T01:07:50.562Z,18.02
2022-08-16T01:10:31.475Z,17.00
2022-08-16T01:13:15.074Z,14.35
2022-08-16T01:15:52.826Z,13.85
2022-08-16T01:18:39.112Z,14.15
2022-08-16T01:21:25.284Z,14.00
2022-08-16T01:24:52.502Z,14.07
2022-08-16T01:27:31.186Z,14.82
2022-08-16T01:30:26.204Z,14.60
2022-08-16T01:33:02.478Z,21.00
2022-08-16T01:35:45.853Z,18.63
2022-08-16T01:38:30.274Z,16.40
2022-08-16T01:41:02.484Z,16.23
2022-08-16T01:43:33.747Z,14.23
2022-08-16T01:46:29.827Z,16.33
2022-08-16T01:49:11.314Z,14.57
2022-08-16T01:51:41.120Z,15.38
2022-08-16T01:54:13.271Z,15.20
2022-08-16T01:56:52.121Z,14.70
2022-08-16T01:59:22.521Z,14.48
2022-08-16T02:01:56.243Z,13.70
2022-08-16T02:04:48.583Z,14.23
2022-08-16T02:07:18.585Z,15.40
2022-08-16T02:09:57.536Z,15.65
2022-08-16T02:12:50.304Z,15.43
2022-08-16T02:15:25.487Z,16.25
2022-08-16T02:17:57.995Z,14.93
2022-08-16T02:20:27.843Z,15.77
2022-08-16T02:22:57.602Z,14.98
2022-08-16T02:25:25.126Z,15.85
2022-08-16T02:28:12.470Z,13.63
2022-08-16T02:30:50.036Z,14.52
2022-08-16T02:33:20.192Z,17.08
2022-08-16T02:35:58.048Z,15.57
2022-08-16T02:38:31.579Z,15.57
2022-08-16T02:41:02.411Z,16.67
2022-08-16T02:43:38.175Z,15.20
2022-08-16T02:46:08.174Z,17.80
2022-08-16T02:48:38.944Z,15.05
2022-08-16T02:51:10.880Z,14.20
2022-08-16T02:53:46.442Z,16.65
2022-08-16T02:56:18.856Z,14.18
2022-08-16T02:58:47.785Z,19.58
2022-08-16T03:01:25.021Z,15.32
2022-08-16T03:04:39.998Z,18.15
2022-08-16T03:06:56.731Z,21.05
2022-08-16T03:09:46.369Z,21.83
2022-08-16T03:12:19.477Z,14.75
2022-08-16T03:14:48.230Z,15.70
2022-08-16T03:17:18.958Z,14.23
2022-08-16T03:19:59.891Z,19.40
2022-08-16T03:22:35.192Z,14.95
2022-08-16T03:25:10.424Z,14.40
2022-08-16T03:27:41.043Z,17.35
2022-08-16T03:30:24.809Z,19.10
2022-08-16T03:32:56.070Z,20.02
2022-08-16T03:35:33.088Z,18.70
2022-08-16T03:38:34.189Z,14.52
2022-08-16T03:41:25.409Z,16.20
2022-08-16T03:43:58.707Z,15.20
2022-08-16T03:46:47.658Z,21.58
2022-08-16T03:49:35.805Z,20.63
2022-08-16T03:52:06.394Z,20.48
2022-08-16T03:54:35.957Z,19.35
2022-08-16T03:57:05.159Z,16.60
2022-08-16T03:59:33.510Z,17.27
2022-08-16T04:02:12.106Z,16.00
2022-08-16T04:04:52.018Z,17.33
2022-08-16T04:07:19.375Z,16.92
2022-08-16T04:09:48.097Z,17.15
2022-08-16T04:13:04.266Z,17.83
2022-08-16T04:15:04.727Z,18.95
2022-08-16T04:17:41.073Z,21.50
2022-08-16T04:20:31.090Z,16.58
2022-08-16T04:23:01.065Z,21.95
2022-08-16T04:25:30.425Z,17.90
2022-08-16T04:28:52.359Z,17.27
2022-08-16T04:30:48.284Z,18.50
2022-08-16T04:35:58.088Z,19.35
2022-08-16T04:38:26.335Z,18.70
2022-08-16T04:40:57.133Z,18.92
2022-08-16T04:43:26.267Z,18.25
2022-08-16T04:46:00.227Z,18.02
2022-08-16T04:48:34.349Z,24.25
2022-08-16T04:51:12.049Z,21.25
2022-08-16T04:53:51.940Z,23.20
2022-08-16T04:56:20.744Z,30.90
2022-08-16T04:58:51.355Z,26.88
2022-08-16T05:01:21.014Z,18.88
2022-08-16T05:04:00.669Z,15.70
2022-08-16T05:06:44.697Z,14.50
2022-08-16T05:09:29.483Z,14.77
2022-08-16T05:11:58.344Z,15.05
2022-08-16T05:14:45.791Z,15.23
2022-08-16T05:17:24.714Z,12.05
2022-08-16T05:19:57.314Z,14.30
2022-08-16T05:22:38.796Z,12.07
2022-08-16T05:25:10.184Z,16.38
2022-08-16T05:27:47.084Z,11.82
2022-08-16T05:30:36.785Z,13.82
2022-08-16T05:33:16.825Z,16.48
2022-08-16T05:35:55.012Z,12.30
2022-08-16T05:38:39.611Z,11.23
2022-08-16T05:41:14.060Z,13.93
2022-08-16T05:43:46.803Z,10.73
2022-08-16T05:46:29.433Z,10.30
2022-08-16T05:51:42.683Z,10.73
2022-08-16T05:54:20.238Z,9.95
2022-08-16T05:56:56.038Z,10.55
2022-08-16T05:59:26.936Z,11.77
2022-08-16T06:01:57.050Z,12.00
2022-08-16T06:04:35.656Z,8.30
2022-08-16T06:07:26.033Z,8.27
2022-08-16T06:10:32.278Z,8.40
2022-08-16T06:13:03.266Z,10.50
2022-08-16T06:15:31.574Z,8.52
2022-08-16T06:18:00.713Z,8.40
2022-08-16T06:20:35.561Z,7.97
2022-08-16T06:23:18.096Z,7.97
2022-08-16T06:26:14.767Z,9.85
2022-08-16T06:28:47.326Z,7.88
2022-08-16T06:31:24.992Z,14.60
2022-08-16T06:33:54.446Z,9.23
2022-08-16T06:36:24.227Z,9.63
2022-08-16T06:39:17.743Z,7.63
2022-08-16T06:42:00.229Z,7.13
2022-08-16T06:44:56.784Z,7.22
2022-08-16T06:47:53.655Z,7.85
2022-08-16T06:50:28.916Z,11.38
2022-08-16T06:53:08.714Z,9.18
2022-08-16T06:55:40.669Z,7.25
2022-08-16T06:58:22.714Z,8.05
2022-08-16T07:01:09.937Z,7.18
2022-08-16T07:03:55.380Z,7.28
2022-08-16T07:06:34.425Z,6.65
2022-08-16T07:09:09.762Z,7.22
2022-08-16T07:11:46.189Z,7.22
2022-08-16T07:14:27.147Z,6.88
2022-08-16T07:16:59.000Z,6.22
2022-08-16T07:20:01.684Z,6.53
2022-08-16T07:22:38.334Z,6.53
2022-08-16T07:25:16.707Z,10.02
2022-08-16T07:27:44.704Z,8.35
2022-08-16T07:30:45.771Z,6.28
2022-08-16T07:33:08.278Z,5.97
2022-08-16T07:35:44.520Z,9.85
2022-08-16T07:38:19.544Z,7.10
2022-08-16T07:41:09.620Z,7.30
2022-08-16T07:43:43.494Z,8.45
2022-08-16T07:46:39.559Z,6.60
2022-08-16T07:49:11.342Z,8.00
2022-08-16T07:51:42.329Z,6.00
2022-08-16T07:54:20.549Z,8.20
2022-08-16T07:59:21.717Z,6.60
2022-08-16T08:01:49.685Z,5.78
2022-08-16T08:04:21.194Z,6.40
2022-08-16T08:06:51.196Z,9.55
2022-08-16T08:09:19.600Z,7.13
2022-08-16T08:12:00.629Z,6.25
2022-08-16T08:14:35.127Z,6.85
2022-08-16T08:17:04.890Z,6.45
2022-08-16T08:19:40.403Z,6.70
2022-08-16T08:22:19.286Z,8.60
2022-08-16T08:24:59.044Z,7.43
2022-08-16T08:27:27.708Z,6.97
2022-08-16T08:30:49.775Z,7.68
2022-08-16T08:33:01.987Z,7.82
2022-08-16T08:35:36.110Z,7.50
2022-08-16T08:38:08.341Z,7.40
2022-08-16T08:40:45.896Z,6.93
2022-08-16T08:43:18.482Z,7.15
2022-08-16T08:45:53.579Z,6.20
2022-08-16T08:48:32.969Z,6.75
2022-08-16T08:51:08.985Z,7.50
2022-08-16T08:53:43.406Z,7.05
2022-08-16T08:56:22.893Z,6.70
2022-08-16T08:58:59.945Z,7.85
2022-08-16T09:01:42.767Z,6.60
2022-08-16T09:04:24.384Z,7.63
2022-08-16T09:06:53.671Z,7.18
2022-08-16T09:09:23.336Z,8.35
2022-08-16T09:12:03.973Z,6.63
2022-08-16T09:14:49.457Z,8.75
2022-08-16T09:17:45.411Z,7.40
2022-08-16T09:20:13.741Z,7.32
2022-08-16T09:25:12.663Z,7.38
2022-08-16T09:27:57.046Z,7.10
2022-08-16T09:30:33.172Z,14.38
2022-08-16T09:33:03.301Z,7.20
2022-08-16T09:35:39.060Z,9.23
2022-08-16T09:38:08.620Z,6.75
2022-08-16T09:40:43.291Z,5.78
2022-08-16T09:43:44.522Z,7.05
2022-08-16T09:46:04.984Z,6.35
2022-08-16T09:48:56.580Z,6.75
2022-08-16T09:51:30.767Z,6.80
2022-08-16T09:54:05.528Z,7.38
2022-08-16T09:56:35.456Z,7.20
2022-08-16T09:59:07.989Z,11.43
2022-08-16T10:01:43.575Z,7.82
2022-08-16T10:04:30.370Z,7.20
2022-08-16T10:09:54.405Z,7.20
2022-08-16T10:12:35.213Z,7.55
2022-08-16T10:15:15.791Z,6.70
2022-08-16T10:18:00.039Z,7.18
2022-08-16T10:20:37.781Z,6.90
2022-08-16T10:23:09.780Z,7.43
2022-08-16T10:27:17.213Z,7.13
2022-08-16T10:28:39.449Z,6.82
2022-08-16T10:31:14.656Z,6.65
2022-08-16T10:33:44.701Z,6.60
2022-08-16T10:36:39.120Z,8.73
2022-08-16T10:39:02.231Z,15.45
2022-08-16T10:41:32.387Z,8.35
2022-08-16T10:44:00.469Z,6.38
2022-08-16T10:46:39.110Z,7.25
2022-08-16T10:52:02.872Z,8.05
2022-08-16T10:54:29.578Z,8.98
2022-08-16T10:59:38.415Z,7.57
2022-08-16T11:02:58.460Z,7.95
2022-08-16T11:05:10.688Z,7.20
2022-08-16T11:07:45.563Z,9.20
2022-08-16T11:13:57.253Z,6.72
2022-08-16T11:19:05.750Z,6.55
2022-08-16T11:24:39.896Z,7.15
2022-08-16T11:27:35.283Z,6.22
2022-08-16T11:29:57.936Z,6.28
2022-08-16T11:32:32.443Z,5.88
2022-08-16T11:35:10.883Z,6.25
2022-08-16T11:40:52.800Z,7.50
2022-08-16T11:43:26.386Z,6.63
2022-08-16T11:45:55.154Z,5.72
2022-08-16T11:48:26.115Z,7.25
2022-08-16T11:50:53.606Z,7.03
2022-08-16T11:53:22.040Z,6.63
2022-08-16T11:55:50.620Z,5.93
2022-08-16T11:58:26.230Z,5.68
2022-08-16T12:00:58.186Z,6.45
2022-08-16T12:03:35.116Z,6.30
2022-08-16T12:06:10.967Z,6.13
2022-08-16T12:08:53.217Z,6.40
2022-08-16T12:11:22.839Z,6.38
2022-08-16T12:13:54.369Z,8.65
2022-08-16T12:16:21.699Z,5.60
2022-08-16T12:18:50.079Z,5.70
2022-08-16T12:21:17.951Z,5.60
2022-08-16T12:23:47.024Z,5.43
2022-08-16T12:26:14.454Z,5.65
2022-08-16T12:28:54.489Z,5.40
2022-08-16T12:31:23.180Z,6.67
2022-08-16T12:33:50.888Z,7.75
2022-08-16T12:36:23.475Z,5.55
2022-08-16T12:38:51.069Z,5.03
2022-08-16T12:41:25.456Z,6.28
2022-08-16T12:43:57.289Z,7.40
2022-08-16T12:46:30.868Z,5.15
2022-08-16T12:49:00.669Z,5.60
2022-08-16T12:51:54.325Z,5.43
2022-08-16T12:54:19.556Z,5.28
2022-08-16T12:56:47.166Z,5.88
2022-08-16T12:59:20.125Z,8.32
2022-08-16T13:01:50.620Z,7.15
2022-08-16T13:04:33.140Z,9.10
2022-08-16T13:09:42.122Z,5.18
2022-08-16T13:12:21.033Z,8.07
2022-08-16T13:14:50.336Z,7.28
2022-08-16T13:17:29.850Z,7.75
2022-08-16T13:20:13.034Z,5.07
2022-08-16T13:23:05.355Z,9.15
2022-08-16T13:25:35.857Z,5.43
2022-08-16T13:28:04.825Z,8.10
2022-08-16T13:30:42.165Z,5.43
2022-08-16T13:33:26.032Z,8.20
2022-08-16T13:35:58.573Z,5.05
2022-08-16T13:38:37.608Z,7.32
2022-08-16T13:41:11.147Z,6.25
2022-08-16T13:43:40.005Z,6.03
2022-08-16T13:46:08.135Z,12.35
2022-08-16T13:48:44.067Z,5.95
2022-08-16T13:51:19.292Z,5.43
2022-08-16T13:53:49.583Z,8.30
2022-08-16T13:56:25.365Z,5.18
2022-08-16T13:58:54.743Z,4.95
2022-08-16T14:01:22.857Z,5.63
2022-08-16T14:03:50.484Z,4.78
2022-08-16T14:06:22.432Z,5.65
2022-08-16T14:08:59.166Z,5.13
2022-08-16T14:11:34.829Z,4.72
2022-08-16T14:14:05.319Z,4.97
2022-08-16T14:16:34.937Z,6.32
2022-08-16T14:19:03.983Z,4.70
2022-08-16T14:21:34.823Z,11.30
2022-08-16T14:24:07.780Z,9.00
2022-08-16T14:26:42.012Z,8.15
2022-08-16T14:29:11.067Z,5.82
2022-08-16T14:31:39.889Z,4.65
2022-08-16T14:34:11.331Z,8.52
2022-08-16T14:36:42.106Z,6.05
2022-08-16T14:41:37.726Z,18.52
2022-08-16T14:44:08.340Z,8.20
2022-08-16T14:46:36.894Z,6.72
2022-08-16T14:49:06.025Z,29.70
2022-08-16T14:51:37.418Z,35.78
2022-08-16T14:54:06.040Z,6.07
2022-08-16T14:56:43.116Z,6.00
2022-08-16T14:59:23.348Z,21.15
2022-08-16T15:01:59.876Z,39.90
2022-08-16T15:04:34.364Z,32.05
2022-08-16T15:07:11.273Z,11.77
2022-08-16T15:09:44.354Z,10.65
2022-08-16T15:12:30.936Z,9.00
2022-08-16T15:15:01.527Z,6.65
2022-08-16T15:17:34.094Z,34.20
2022-08-16T15:20:09.270Z,7.85
2022-08-16T15:22:44.223Z,9.93
2022-08-16T15:25:17.838Z,13.18
2022-08-16T15:27:46.352Z,32.63
2022-08-16T15:30:57.524Z,8.27
2022-08-16T15:33:19.845Z,24.50
2022-08-16T15:35:59.199Z,61.10
2022-08-16T15:38:57.963Z,59.00
2022-08-16T15:41:42.537Z,44.60
2022-08-16T15:44:13.930Z,9.70
2022-08-16T15:46:55.492Z,20.02
2022-08-16T15:49:38.134Z,9.90
2022-08-16T15:52:29.211Z,6.10
2022-08-16T15:54:59.417Z,6.10
2022-08-16T15:57:37.000Z,5.97
2022-08-16T16:00:17.535Z,8.70
2022-08-16T16:02:51.038Z,6.13
2022-08-16T16:05:20.136Z,8.07
2022-08-16T16:07:55.404Z,5.28
2022-08-16T16:10:29.851Z,5.53
2022-08-16T16:13:00.906Z,10.15
2022-08-16T16:15:34.936Z,15.90
2022-08-16T16:18:09.505Z,6.22
2022-08-16T16:20:42.512Z,6.72
2022-08-16T16:23:11.074Z,8.82
2022-08-16T16:25:43.808Z,7.85
2022-08-16T16:28:46.400Z,8.63
2022-08-16T16:31:08.047Z,8.85
2022-08-16T16:33:39.875Z,5.83
2022-08-16T16:36:11.334Z,6.28
2022-08-16T16:38:41.943Z,5.38
2022-08-16T16:41:10.585Z,8.63
2022-08-16T16:43:40.606Z,6.10
2022-08-16T16:46:40.883Z,7.60
2022-08-16T16:48:58.092Z,6.47
2022-08-16T16:51:28.101Z,8.35
2022-08-16T16:53:56.951Z,8.05
2022-08-16T16:56:50.368Z,12.93
2022-08-16T16:59:19.996Z,16.75
2022-08-16T17:01:59.900Z,13.88
2022-08-16T17:04:38.332Z,18.98
2022-08-16T17:07:10.521Z,19.65
2022-08-16T17:09:40.360Z,23.88
2022-08-16T17:12:17.659Z,36.78
2022-08-16T17:14:58.166Z,37.65
2022-08-16T17:17:27.335Z,26.98
2022-08-16T17:19:56.987Z,15.00
2022-08-16T17:22:32.736Z,13.23
2022-08-16T17:25:00.872Z,12.48
2022-08-16T17:27:32.585Z,12.23
2022-08-16T17:30:14.815Z,17.55
2022-08-16T17:32:54.560Z,14.27
2022-08-16T17:35:34.094Z,19.10
2022-08-16T17:38:06.086Z,18.02
2022-08-16T17:40:50.231Z,12.25
2022-08-16T17:43:36.139Z,12.43
2022-08-16T17:46:04.992Z,15.18
2022-08-16T17:48:36.107Z,14.80
2022-08-16T17:51:05.793Z,8.45
2022-08-16T17:53:35.536Z,11.23
2022-08-16T17:56:04.347Z,12.75
2022-08-16T17:58:31.912Z,11.02
2022-08-16T18:01:00.517Z,12.10
2022-08-16T18:04:03.118Z,13.63
2022-08-16T18:06:25.098Z,13.18
2022-08-16T18:09:03.937Z,10.60
2022-08-16T18:11:38.885Z,13.65
2022-08-16T18:14:10.329Z,10.20
2022-08-16T18:16:37.758Z,9.52
2022-08-16T18:19:05.113Z,13.05
2022-08-16T18:21:50.603Z,9.35
2022-08-16T18:24:19.108Z,10.27
2022-08-16T18:26:46.861Z,10.15
2022-08-16T18:29:14.236Z,9.10
2022-08-16T18:31:42.082Z,11.68
2022-08-16T18:34:09.413Z,8.30
2022-08-16T18:36:37.354Z,8.82
2022-08-16T18:39:08.472Z,11.48
2022-08-16T18:41:38.044Z,11.57
2022-08-16T18:44:25.115Z,12.70
2022-08-16T18:46:55.372Z,8.63
2022-08-16T18:49:22.631Z,10.50
2022-08-16T18:51:50.924Z,9.45
2022-08-16T18:54:18.664Z,13.52
2022-08-16T18:56:53.706Z,11.25
2022-08-16T18:59:26.560Z,9.35
2022-08-16T19:01:54.266Z,8.63
2022-08-16T19:04:47.771Z,10.65
2022-08-16T19:07:20.776Z,9.63
2022-08-16T19:09:48.007Z,10.63
2022-08-16T19:12:15.761Z,10.45
2022-08-16T19:14:45.710Z,10.10
2022-08-16T19:17:13.023Z,9.07
2022-08-16T19:19:40.525Z,12.50
2022-08-16T19:22:08.547Z,10.68
2022-08-16T19:24:38.178Z,10.68
2022-08-16T19:27:10.208Z,9.20
2022-08-16T19:29:37.521Z,9.73
2022-08-16T19:32:05.226Z,10.88
2022-08-16T19:34:33.756Z,9.30
2022-08-16T19:37:01.342Z,9.95
2022-08-16T19:39:32.520Z,12.85
2022-08-16T19:42:12.386Z,10.68
2022-08-16T19:44:40.567Z,10.40
2022-08-16T19:47:07.865Z,10.20
2022-08-16T19:49:35.394Z,11.77
2022-08-16T19:52:38.511Z,14.90
2022-08-16T19:55:09.064Z,14.52
2022-08-16T19:57:39.200Z,9.90
2022-08-16T20:00:17.483Z,12.98
2022-08-16T20:02:54.994Z,14.32
2022-08-16T20:05:27.200Z,22.45
2022-08-16T20:08:03.871Z,16.45
2022-08-16T20:10:32.205Z,9.20
2022-08-16T20:13:02.482Z,11.55
2022-08-16T20:15:32.146Z,9.82
2022-08-16T20:18:01.538Z,9.27
2022-08-16T20:20:28.790Z,9.23
2022-08-16T20:22:57.664Z,10.27
2022-08-16T20:25:29.146Z,10.05
2022-08-16T20:27:57.669Z,9.68
2022-08-16T20:30:25.804Z,10.15
2022-08-16T20:32:53.639Z,9.40
2022-08-16T20:35:23.886Z,9.52
2022-08-16T20:37:51.198Z,10.80
2022-08-16T20:40:28.042Z,10.48
2022-08-16T20:43:15.174Z,10.30
2022-08-16T20:45:45.387Z,9.68
2022-08-16T20:48:13.574Z,8.98
2022-08-16T20:50:41.561Z,10.80
2022-08-16T20:53:09.405Z,11.15
2022-08-16T20:55:37.568Z,10.43
2022-08-16T20:58:04.958Z,12.38
2022-08-16T21:00:33.870Z,12.10
2022-08-16T21:03:06.750Z,9.57
2022-08-16T21:05:34.399Z,9.02
2022-08-16T21:08:01.547Z,7.90
2022-08-16T21:10:28.915Z,9.50
2022-08-16T21:13:04.091Z,9.32
2022-08-16T21:15:33.239Z,8.95
2022-08-16T21:18:01.089Z,12.65
2022-08-16T21:20:29.401Z,9.40
2022-08-16T21:23:03.987Z,11.55
2022-08-16T21:25:32.658Z,9.30
2022-08-16T21:28:39.311Z,8.85
2022-08-16T21:30:48.894Z,10.02
2022-08-16T21:33:19.180Z,10.75
2022-08-16T21:35:48.221Z,12.98
2022-08-16T21:38:29.573Z,11.63
2022-08-16T21:40:59.521Z,18.70
2022-08-16T21:43:31.901Z,10.32
2022-08-16T21:46:01.291Z,10.93
2022-08-16T21:48:35.195Z,15.52
2022-08-16T21:51:06.527Z,14.68
2022-08-16T21:53:34.993Z,12.50
2022-08-16T21:56:03.089Z,14.55
2022-08-16T21:58:31.761Z,12.18
2022-08-16T22:00:59.924Z,11.40
2022-08-16T22:03:27.161Z,14.30
2022-08-16T22:06:11.075Z,11.18
2022-08-16T22:08:49.227Z,11.10
2022-08-16T22:11:25.374Z,9.15
2022-08-16T22:13:58.521Z,19.15
2022-08-16T22:16:33.394Z,10.63
2022-08-16T22:19:02.102Z,14.50
2022-08-16T22:21:30.435Z,10.68
2022-08-16T22:23:58.803Z,8.55
2022-08-16T22:26:33.038Z,11.75
2022-08-16T22:29:02.611Z,10.00
2022-08-16T22:31:30.892Z,13.50
2022-08-16T22:33:58.133Z,14.55
2022-08-16T22:36:28.305Z,9.77
2022-08-16T22:38:59.052Z,8.93
2022-08-16T22:41:28.691Z,8.93
2022-08-16T22:43:56.454Z,8.52
2022-08-16T22:46:24.244Z,10.00
2022-08-16T22:48:51.567Z,11.57
2022-08-16T22:51:24.442Z,8.70
2022-08-16T22:53:52.819Z,10.05
2022-08-16T22:56:20.746Z,8.38
2022-08-16T22:58:48.196Z,7.30
2022-08-16T23:01:17.171Z,7.18
2022-08-16T23:03:44.484Z,7.95
2022-08-16T23:06:13.868Z,10.43
2022-08-16T23:08:41.977Z,7.18
2022-08-16T23:11:21.280Z,7.78
2022-08-16T23:13:53.784Z,7.25
2022-08-16T23:16:32.500Z,7.18
2022-08-16T23:19:04.898Z,6.85
2022-08-16T23:21:33.430Z,6.40
2022-08-16T23:24:00.809Z,5.65
2022-08-16T23:26:46.266Z,6.28
2022-08-16T23:29:26.315Z,7.70
2022-08-16T23:31:58.876Z,6.80
2022-08-16T23:34:28.415Z,6.55
2022-08-16T23:36:56.660Z,7.57
2022-08-16T23:39:24.465Z,5.18
2022-08-16T23:41:52.426Z,10.27
2022-08-16T23:44:44.205Z,6.93
2022-08-16T23:47:07.326Z,7.63
2022-08-16T23:49:57.515Z,6.00
2022-08-16T23:52:39.343Z,6.88
2022-08-16T23:55:09.594Z,7.95
2022-08-16T23:57:37.569Z,7.35
